Time;durP1;ratioP1;P1;durP2;ratioP2;P2;SDS_P1;SDS_P2;PMS_P1;PMS_P2;Temp;Humidity;BMP_temperature;BMP_pressure;BME280_temperature;BME280_humidity;BME280_pressure;Samples;Min_cycle;Max_cycle;Signal;HPM_P1;HPM_P2
2022/10/11 00:01:12;;;;;;;2.47;1.40;;;;;;;;;;4919943;29;20032;-84
2022/10/11 00:03:37;;;;;;;3.72;1.70;;;;;;;;;;4918862;29;20064;-85
2022/10/11 00:06:04;;;;;;;4.55;1.63;;;;;;;;;;4919862;29;20040;-85
2022/10/11 00:08:31;;;;;;;3.58;1.58;;;;;;;;;;4920632;29;20020;-86
2022/10/11 00:11:01;;;;;;;4.25;1.55;;;;;;;;;;4920437;29;20157;-86
2022/10/11 00:13:27;;;;;;;5.70;1.60;;;;;;;;;;4918655;29;20036;-85
2022/10/11 00:15:53;;;;;;;3.72;1.65;;;;;;;;;;4918468;29;20056;-85
2022/10/11 00:18:18;;;;;;;6.40;1.60;;;;;;;;;;4919631;29;20024;-85
2022/10/11 00:20:44;;;;;;;2.55;1.63;;;;;;;;;;4920253;29;20528;-85
2022/10/11 00:23:09;;;;;;;6.65;1.75;;;;;;;;;;4920028;29;20036;-85
2022/10/11 00:25:35;;;;;;;2.75;1.48;;;;;;;;;;4919749;29;20028;-85
2022/10/11 00:28:00;;;;;;;3.33;1.38;;;;;;;;;;4918867;29;20680;-85
2022/10/11 00:30:26;;;;;;;2.75;1.60;;;;;;;;;;4920019;29;20036;-85
2022/10/11 00:32:51;;;;;;;4.57;1.50;;;;;;;;;;4919974;29;20516;-85
2022/10/11 00:35:17;;;;;;;4.22;1.40;;;;;;;;;;4919299;29;20036;-85
2022/10/11 00:37:42;;;;;;;4.07;1.65;;;;;;;;;;4920607;29;20047;-85
2022/10/11 00:40:13;;;;;;;4.47;1.63;;;;;;;;;;4923417;29;20035;-85
2022/10/11 00:42:39;;;;;;;5.47;1.40;;;;;;;;;;4922439;29;20032;-85
2022/10/11 00:45:26;;;;;;;4.97;1.63;;;;;;;;;;4922331;29;20099;-85
2022/10/11 00:47:59;;;;;;;4.43;1.48;;;;;;;;;;4922213;29;20470;-85
2022/10/11 00:50:28;;;;;;;2.97;1.40;;;;;;;;;;4923651;29;20044;-85
2022/10/11 00:53:00;;;;;;;2.17;1.27;;;;;;;;;;4922237;29;20044;-84
2022/10/11 00:55:30;;;;;;;5.10;1.45;;;;;;;;;;4922212;29;20036;-84
2022/10/11 00:57:57;;;;;;;3.45;1.50;;;;;;;;;;4922790;29;20036;-84
2022/10/11 01:00:23;;;;;;;4.00;1.50;;;;;;;;;;4923338;29;20032;-84
2022/10/11 01:02:49;;;;;;;4.70;1.50;;;;;;;;;;4905604;29;20508;-84
2022/10/11 01:05:17;;;;;;;3.55;1.50;;;;;;;;;;4922916;29;20040;-84
2022/10/11 01:07:45;;;;;;;3.70;1.63;;;;;;;;;;4923382;29;20051;-84
2022/10/11 01:10:10;;;;;;;8.05;1.63;;;;;;;;;;4922137;29;20112;-84
2022/10/11 01:12:46;;;;;;;2.03;1.30;;;;;;;;;;4921387;29;20040;-84
2022/10/11 01:15:23;;;;;;;3.92;1.80;;;;;;;;;;4921618;29;20068;-84
2022/10/11 01:17:50;;;;;;;3.65;1.60;;;;;;;;;;4921299;29;20046;-84
2022/10/11 01:20:43;;;;;;;3.92;1.40;;;;;;;;;;4922525;29;20040;-84
2022/10/11 01:23:23;;;;;;;6.90;1.85;;;;;;;;;;4922851;29;20087;-84
2022/10/11 01:26:07;;;;;;;6.32;1.60;;;;;;;;;;4923221;29;20557;-84
2022/10/11 01:28:42;;;;;;;7.55;1.48;;;;;;;;;;4922824;29;20052;-84
2022/10/11 01:31:20;;;;;;;2.15;1.45;;;;;;;;;;4921584;29;20032;-84
2022/10/11 01:34:08;;;;;;;1.80;1.33;;;;;;;;;;4923127;29;20091;-83
2022/10/11 01:36:55;;;;;;;4.55;1.58;;;;;;;;;;4921019;29;20116;-84
2022/10/11 01:39:30;;;;;;;3.60;1.48;;;;;;;;;;4920443;29;20047;-84
2022/10/11 01:41:59;;;;;;;4.25;1.60;;;;;;;;;;4922080;29;20032;-84
2022/10/11 01:44:25;;;;;;;4.00;1.70;;;;;;;;;;4920976;29;20040;-84
2022/10/11 01:46:52;;;;;;;3.30;1.60;;;;;;;;;;4921133;29;20127;-83
2022/10/11 01:49:17;;;;;;;4.60;1.67;;;;;;;;;;4920740;29;20048;-84
2022/10/11 01:51:49;;;;;;;3.00;1.70;;;;;;;;;;4922556;29;20108;-84
2022/10/11 01:54:56;;;;;;;4.07;1.88;;;;;;;;;;4921682;29;20048;-84
2022/10/11 01:57:31;;;;;;;2.97;1.70;;;;;;;;;;4921206;29;20083;-84
2022/10/11 02:00:10;;;;;;;10.02;1.92;;;;;;;;;;4922510;29;20040;-84
2022/10/11 02:02:48;;;;;;;3.97;1.75;;;;;;;;;;4922047;29;20036;-83
2022/10/11 02:05:28;;;;;;;3.53;1.70;;;;;;;;;;4921822;29;20078;-83
2022/10/11 02:08:11;;;;;;;6.05;1.70;;;;;;;;;;4922410;29;20047;-84
2022/10/11 02:10:53;;;;;;;;;;;;;;;;;;4921361;29;20170;-84
2022/10/11 02:13:28;;;;;;;3.08;1.65;;;;;;;;;;4919770;29;19921;-83
2022/10/11 02:15:57;;;;;;;2.72;1.52;;;;;;;;;;4921227;29;20040;-84
2022/10/11 02:18:28;;;;;;;2.67;1.55;;;;;;;;;;4921856;29;20077;-84
2022/10/11 02:20:59;;;;;;;2.67;1.42;;;;;;;;;;4921319;29;20048;-83
2022/10/11 02:23:32;;;;;;;4.72;1.67;;;;;;;;;;4921699;29;20044;-84
2022/10/11 02:25:59;;;;;;;5.15;1.80;;;;;;;;;;4921159;29;20032;-84
2022/10/11 02:28:30;;;;;;;3.58;1.73;;;;;;;;;;4921841;29;20044;-84
2022/10/11 02:30:59;;;;;;;3.95;1.70;;;;;;;;;;4921313;29;20501;-84
2022/10/11 02:33:34;;;;;;;5.70;1.50;;;;;;;;;;4921609;29;20040;-84
2022/10/11 02:36:07;;;;;;;5.63;1.80;;;;;;;;;;4921569;29;20032;-84
2022/10/11 02:38:39;;;;;;;2.40;1.48;;;;;;;;;;4921721;29;20047;-84
2022/10/11 02:41:22;;;;;;;3.85;1.70;;;;;;;;;;4920283;29;20044;-84
2022/10/11 02:43:56;;;;;;;2.05;1.60;;;;;;;;;;4921416;29;20044;-84
2022/10/11 02:46:22;;;;;;;3.72;1.52;;;;;;;;;;4919915;29;20437;-84
2022/10/11 02:48:49;;;;;;;3.67;1.80;;;;;;;;;;4920792;29;20068;-83
2022/10/11 02:51:16;;;;;;;4.90;1.60;;;;;;;;;;4920569;29;20076;-83
2022/10/11 02:53:42;;;;;;;7.75;1.67;;;;;;;;;;4920922;29;20067;-82
2022/10/11 02:56:07;;;;;;;5.90;1.80;;;;;;;;;;4919531;29;20400;-84
2022/10/11 02:58:33;;;;;;;4.28;1.58;;;;;;;;;;4920937;29;20063;-84
2022/10/11 03:00:58;;;;;;;6.15;1.70;;;;;;;;;;4920149;29;20104;-84
2022/10/11 03:03:24;;;;;;;4.47;1.70;;;;;;;;;;4920242;29;20058;-84
2022/10/11 03:05:49;;;;;;;5.55;1.85;;;;;;;;;;4920662;29;20099;-83
2022/10/11 03:08:16;;;;;;;6.57;1.80;;;;;;;;;;4919750;29;20040;-84
2022/10/11 03:10:42;;;;;;;4.10;1.95;;;;;;;;;;4921237;29;20071;-84
2022/10/11 03:13:08;;;;;;;3.42;1.60;;;;;;;;;;4921013;29;20032;-84
2022/10/11 03:15:34;;;;;;;4.43;2.10;;;;;;;;;;4919853;29;20032;-84
2022/10/11 03:17:59;;;;;;;4.20;1.90;;;;;;;;;;4920745;29;20072;-84
2022/10/11 03:20:25;;;;;;;6.70;1.63;;;;;;;;;;4919601;29;20040;-84
2022/10/11 03:22:51;;;;;;;4.28;1.95;;;;;;;;;;4920942;29;20039;-84
2022/10/11 03:25:16;;;;;;;4.95;1.63;;;;;;;;;;4920509;29;20116;-84
2022/10/11 03:27:42;;;;;;;4.40;1.83;;;;;;;;;;4921140;29;20490;-83
2022/10/11 03:30:09;;;;;;;3.47;1.90;;;;;;;;;;4920920;29;20040;-84
2022/10/11 03:32:35;;;;;;;4.40;1.65;;;;;;;;;;4920632;29;20043;-86
2022/10/11 03:35:00;;;;;;;4.03;1.92;;;;;;;;;;4920520;29;20032;-85
2022/10/11 03:37:26;;;;;;;3.40;2.00;;;;;;;;;;4920516;29;20532;-86
2022/10/11 03:39:51;;;;;;;3.83;1.90;;;;;;;;;;4921190;29;20040;-84
2022/10/11 03:42:17;;;;;;;3.65;1.85;;;;;;;;;;4918945;29;20039;-84
2022/10/11 03:44:50;;;;;;;3.42;2.00;;;;;;;;;;4919677;29;20397;-84
2022/10/11 03:47:16;;;;;;;;;;;;;;;;;;4919699;29;20131;-84
2022/10/11 03:49:41;;;;;;;3.67;1.80;;;;;;;;;;4920960;29;19955;-84
2022/10/11 03:52:07;;;;;;;4.35;2.00;;;;;;;;;;4919175;29;20036;-85
2022/10/11 03:54:32;;;;;;;4.72;1.70;;;;;;;;;;4919185;29;20051;-84
2022/10/11 03:56:58;;;;;;;3.67;2.00;;;;;;;;;;4920583;29;20513;-85
2022/10/11 03:59:23;;;;;;;2.70;1.60;;;;;;;;;;4920789;29;20437;-84
2022/10/11 04:01:49;;;;;;;3.97;1.80;;;;;;;;;;4920169;29;20078;-84
2022/10/11 04:04:14;;;;;;;5.30;1.83;;;;;;;;;;4921269;29;20135;-84
2022/10/11 04:06:40;;;;;;;4.05;1.95;;;;;;;;;;4921271;29;20032;-84
2022/10/11 04:09:05;;;;;;;6.20;3.60;;;;;;;;;;4920763;29;20032;-84
2022/10/11 04:11:31;;;;;;;4.68;2.30;;;;;;;;;;4920593;29;20043;-85
2022/10/11 04:13:57;;;;;;;3.30;2.20;;;;;;;;;;4919847;29;20112;-84
2022/10/11 04:16:22;;;;;;;4.85;2.70;;;;;;;;;;4918627;29;20039;-84
2022/10/11 04:18:48;;;;;;;7.65;3.50;;;;;;;;;;4919299;29;20171;-84
2022/10/11 04:21:13;;;;;;;3.65;2.28;;;;;;;;;;4920224;29;20043;-84
2022/10/11 04:23:39;;;;;;;4.72;2.20;;;;;;;;;;4919892;29;20040;-84
2022/10/11 04:26:06;;;;;;;3.63;2.30;;;;;;;;;;4918794;29;20036;-84
2022/10/11 04:28:32;;;;;;;4.03;2.28;;;;;;;;;;4920475;29;20264;-84
2022/10/11 04:30:57;;;;;;;4.70;2.60;;;;;;;;;;4920447;29;20047;-85
2022/10/11 04:33:23;;;;;;;4.45;2.22;;;;;;;;;;4919173;29;20036;-84
2022/10/11 04:35:52;;;;;;;3.72;2.00;;;;;;;;;;4919858;29;20079;-84
2022/10/11 04:38:18;;;;;;;2.60;1.95;;;;;;;;;;4902504;29;20044;-84
2022/10/11 04:40:43;;;;;;;4.68;2.50;;;;;;;;;;4918879;29;20043;-84
2022/10/11 04:43:09;;;;;;;5.93;3.08;;;;;;;;;;4919400;29;20413;-84
2022/10/11 04:45:34;;;;;;;7.18;3.05;;;;;;;;;;4919605;29;20044;-84
2022/10/11 04:48:00;;;;;;;6.35;3.05;;;;;;;;;;4918311;29;20540;-84
2022/10/11 04:50:25;;;;;;;5.40;2.83;;;;;;;;;;4920168;29;20112;-84
2022/10/11 04:52:56;;;;;;;4.78;2.83;;;;;;;;;;4902801;29;20040;-85
2022/10/11 04:55:21;;;;;;;4.18;2.50;;;;;;;;;;4902199;29;20071;-84
2022/10/11 04:57:47;;;;;;;4.57;2.25;;;;;;;;;;4919525;29;20426;-85
2022/10/11 05:00:12;;;;;;;6.05;2.67;;;;;;;;;;4919982;29;20539;-84
2022/10/11 05:02:38;;;;;;;5.07;2.30;;;;;;;;;;4918055;29;20417;-84
2022/10/11 05:05:04;;;;;;;3.78;2.40;;;;;;;;;;4926747;29;20039;-85
2022/10/11 05:07:29;;;;;;;4.05;2.55;;;;;;;;;;4935449;29;20046;-84
2022/10/11 05:09:55;;;;;;;4.97;2.70;;;;;;;;;;4930657;29;20067;-82
2022/10/11 05:12:20;;;;;;;5.10;2.70;;;;;;;;;;4930286;29;20110;-84
2022/10/11 05:14:46;;;;;;;3.40;2.47;;;;;;;;;;4937283;29;20043;-85
2022/10/11 05:17:11;;;;;;;5.35;2.42;;;;;;;;;;4929161;29;20044;-85
2022/10/11 05:19:37;;;;;;;7.07;2.63;;;;;;;;;;4935938;29;20071;-86
2022/10/11 05:22:02;;;;;;;5.90;2.70;;;;;;;;;;4938647;29;20044;-85
2022/10/11 05:24:28;;;;;;;5.03;2.95;;;;;;;;;;4940980;29;20059;-85
2022/10/11 05:26:53;;;;;;;9.35;2.80;;;;;;;;;;4942506;29;20086;-86
2022/10/11 05:29:19;;;;;;;4.50;2.80;;;;;;;;;;4942802;29;20032;-86
2022/10/11 05:31:44;;;;;;;3.67;2.60;;;;;;;;;;4938951;29;20028;-86
2022/10/11 05:34:10;;;;;;;4.57;2.60;;;;;;;;;;4934249;29;20453;-87
2022/10/11 05:36:35;;;;;;;5.47;3.00;;;;;;;;;;4944667;29;20032;-87
2022/10/11 05:39:00;;;;;;;6.95;2.85;;;;;;;;;;4943873;29;20039;-87
2022/10/11 05:41:26;;;;;;;8.07;3.85;;;;;;;;;;4945097;29;20035;-86
2022/10/11 05:43:51;;;;;;;6.75;4.28;;;;;;;;;;4944018;29;20106;-87
2022/10/11 05:46:17;;;;;;;5.10;4.03;;;;;;;;;;4944488;29;20090;-86
2022/10/11 05:48:42;;;;;;;6.30;3.25;;;;;;;;;;4944183;29;20067;-86
2022/10/11 05:51:09;;;;;;;8.32;4.53;;;;;;;;;;4944358;29;20031;-87
2022/10/11 05:53:36;;;;;;;7.45;3.65;;;;;;;;;;4943237;29;20039;-86
2022/10/11 05:56:01;;;;;;;5.25;4.00;;;;;;;;;;4943333;29;20035;-87
2022/10/11 05:58:27;;;;;;;7.03;3.90;;;;;;;;;;4942296;29;20043;-88
2022/10/11 06:00:53;;;;;;;7.28;4.50;;;;;;;;;;4941543;29;20401;-87
2022/10/11 06:03:19;;;;;;;8.98;5.20;;;;;;;;;;4943589;29;20046;-88
2022/10/11 06:05:45;;;;;;;7.95;5.18;;;;;;;;;;4942330;29;20043;-87
2022/10/11 06:08:12;;;;;;;9.23;3.95;;;;;;;;;;4941127;29;20046;-88
2022/10/11 06:10:38;;;;;;;6.18;3.05;;;;;;;;;;4940758;29;20040;-87
2022/10/11 06:13:04;;;;;;;5.85;3.03;;;;;;;;;;4941140;29;20090;-87
2022/10/11 06:15:30;;;;;;;6.78;3.35;;;;;;;;;;4941159;29;20040;-87
2022/10/11 06:17:56;;;;;;;6.32;3.10;;;;;;;;;;4939639;29;20035;-87
2022/10/11 06:20:22;;;;;;;7.95;3.10;;;;;;;;;;4940966;29;20047;-88
2022/10/11 06:22:47;;;;;;;6.05;3.00;;;;;;;;;;4941631;29;20071;-86
2022/10/11 06:25:13;;;;;;;5.35;3.05;;;;;;;;;;4941748;29;20147;-86
2022/10/11 06:27:38;;;;;;;5.22;2.60;;;;;;;;;;4941302;29;20032;-87
2022/10/11 06:30:04;;;;;;;6.05;3.25;;;;;;;;;;4940014;29;20074;-87
2022/10/11 06:32:30;;;;;;;4.57;2.60;;;;;;;;;;4938841;29;20043;-87
2022/10/11 06:34:56;;;;;;;6.38;2.58;;;;;;;;;;4920621;29;20065;-87
2022/10/11 06:37:21;;;;;;;3.80;2.47;;;;;;;;;;4922721;29;20490;-87
2022/10/11 06:39:49;;;;;;;4.05;2.55;;;;;;;;;;4922516;29;20035;-87
2022/10/11 06:42:15;;;;;;;6.95;2.40;;;;;;;;;;4921578;29;20034;-87
2022/10/11 06:44:40;;;;;;;4.13;2.42;;;;;;;;;;4930822;29;20040;-86
2022/10/11 06:47:07;;;;;;;4.63;2.33;;;;;;;;;;4937402;29;20032;-89
2022/10/11 06:49:33;;;;;;;6.15;3.25;;;;;;;;;;4924944;29;20039;-89
2022/10/11 06:51:58;;;;;;;5.45;2.75;;;;;;;;;;4923863;29;20067;-88
2022/10/11 06:54:24;;;;;;;10.10;3.17;;;;;;;;;;4926249;29;20028;-88
2022/10/11 06:56:50;;;;;;;4.05;2.80;;;;;;;;;;4921069;29;20629;-88
2022/10/11 06:59:15;;;;;;;4.88;2.70;;;;;;;;;;4922822;29;20121;-88
2022/10/11 07:01:41;;;;;;;4.10;2.58;;;;;;;;;;4922535;29;20077;-88
2022/10/11 07:04:07;;;;;;;3.53;2.38;;;;;;;;;;4935244;29;20042;-88
2022/10/11 07:06:36;;;;;;;6.93;3.13;;;;;;;;;;4942114;29;20112;-89
2022/10/11 07:09:02;;;;;;;4.15;2.60;;;;;;;;;;4942945;29;20432;-88
2022/10/11 07:11:28;;;;;;;5.10;3.15;;;;;;;;;;4939416;29;20042;-88
2022/10/11 07:14:00;;;;;;;6.22;2.78;;;;;;;;;;4941278;29;20106;-88
2022/10/11 07:16:27;;;;;;;4.70;2.67;;;;;;;;;;4941811;29;20064;-89
2022/10/11 07:18:58;;;;;;;3.67;2.20;;;;;;;;;;4940051;29;20035;-88
2022/10/11 07:21:23;;;;;;;2.83;1.88;;;;;;;;;;4927524;29;20040;-88
2022/10/11 07:23:49;;;;;;;4.80;2.17;;;;;;;;;;4922190;29;20091;-88
2022/10/11 07:26:15;;;;;;;3.92;2.50;;;;;;;;;;4920436;29;20052;-87
2022/10/11 07:28:41;;;;;;;5.53;2.40;;;;;;;;;;4921986;29;20051;-87
2022/10/11 07:31:09;;;;;;;4.43;2.30;;;;;;;;;;4925985;29;20032;-88
2022/10/11 07:33:34;;;;;;;4.60;2.30;;;;;;;;;;4923408;29;20093;-86
2022/10/11 07:36:00;;;;;;;3.10;2.30;;;;;;;;;;4920851;29;20047;-86
2022/10/11 07:38:26;;;;;;;4.50;2.15;;;;;;;;;;4918699;29;20043;-86
2022/10/11 07:40:51;;;;;;;6.05;2.40;;;;;;;;;;4920249;29;20030;-85
2022/10/11 07:43:18;;;;;;;5.28;2.30;;;;;;;;;;4919429;29;20477;-87
2022/10/11 07:45:46;;;;;;;5.80;2.75;;;;;;;;;;4919607;29;20061;-87
2022/10/11 07:48:12;;;;;;;6.43;2.88;;;;;;;;;;4919807;29;20040;-86
2022/10/11 07:50:37;;;;;;;9.05;3.00;;;;;;;;;;4918748;29;20099;-86
2022/10/11 07:53:03;;;;;;;5.68;2.67;;;;;;;;;;4919894;29;20482;-86
2022/10/11 07:55:30;;;;;;;5.05;2.72;;;;;;;;;;4919957;29;20032;-87
2022/10/11 07:57:56;;;;;;;5.55;2.60;;;;;;;;;;4919790;29;20040;-87
2022/10/11 08:00:22;;;;;;;3.38;2.47;;;;;;;;;;4920228;29;20048;-86
2022/10/11 08:02:48;;;;;;;8.57;3.20;;;;;;;;;;4919001;29;20418;-86
2022/10/11 08:05:14;;;;;;;6.47;3.45;;;;;;;;;;4919289;29;20039;-86
2022/10/11 08:07:39;;;;;;;3.97;2.55;;;;;;;;;;4919884;29;20108;-86
2022/10/11 08:10:06;;;;;;;5.25;3.17;;;;;;;;;;4903081;29;20518;-86
2022/10/11 08:12:32;;;;;;;4.40;2.80;;;;;;;;;;4919566;29;20040;-86
2022/10/11 08:14:58;;;;;;;4.72;2.40;;;;;;;;;;4919876;29;20555;-87
2022/10/11 08:17:23;;;;;;;5.88;2.70;;;;;;;;;;4919783;29;20099;-85
2022/10/11 08:19:49;;;;;;;3.83;2.75;;;;;;;;;;4919606;29;20032;-87
2022/10/11 08:22:15;;;;;;;4.97;2.60;;;;;;;;;;4919772;29;20036;-85
2022/10/11 08:24:40;;;;;;;6.13;2.50;;;;;;;;;;4919386;29;20151;-85
2022/10/11 08:27:06;;;;;;;4.18;2.60;;;;;;;;;;4919807;29;20032;-86
2022/10/11 08:29:32;;;;;;;3.30;2.22;;;;;;;;;;4918654;29;20047;-86
2022/10/11 08:31:57;;;;;;;5.07;2.50;;;;;;;;;;4919958;29;20036;-87
2022/10/11 08:34:22;;;;;;;3.65;2.53;;;;;;;;;;4919343;29;20043;-86
2022/10/11 08:36:48;;;;;;;5.80;2.85;;;;;;;;;;4919460;29;20042;-88
2022/10/11 08:39:14;;;;;;;5.13;2.70;;;;;;;;;;4917946;29;20119;-85
2022/10/11 08:41:53;;;;;;;5.75;2.35;;;;;;;;;;4920196;29;20036;-86
2022/10/11 08:44:42;;;;;;;4.30;2.47;;;;;;;;;;4917890;29;20060;-87
2022/10/11 08:47:22;;;;;;;5.47;2.50;;;;;;;;;;4919530;29;20051;-88
2022/10/11 08:49:49;;;;;;;18.95;3.05;;;;;;;;;;4904386;29;20051;-87
2022/10/11 08:52:27;;;;;;;11.35;2.95;;;;;;;;;;4920784;29;20115;-82
2022/10/11 08:54:57;;;;;;;13.02;3.05;;;;;;;;;;4919710;29;20043;-84
2022/10/11 08:57:27;;;;;;;5.22;2.28;;;;;;;;;;4918638;29;20044;-86
2022/10/11 08:59:59;;;;;;;4.32;2.28;;;;;;;;;;4923595;29;20039;-87
2022/10/11 09:02:30;;;;;;;6.57;2.60;;;;;;;;;;4923884;29;20088;-87
2022/10/11 09:04:56;;;;;;;4.43;2.20;;;;;;;;;;4922352;29;20063;-88
2022/10/11 09:07:30;;;;;;;7.80;2.00;;;;;;;;;;4922675;29;20024;-88
2022/10/11 09:10:16;;;;;;;13.85;2.30;;;;;;;;;;4926831;29;20043;-87
2022/10/11 09:13:30;;;;;;;12.18;2.20;;;;;;;;;;4931012;29;20040;-86
2022/10/11 09:15:55;;;;;;;12.40;2.40;;;;;;;;;;4916682;29;20183;-87
2022/10/11 09:18:38;;;;;;;14.75;2.30;;;;;;;;;;4935414;29;20071;-87
2022/10/11 09:21:22;;;;;;;3.78;2.22;;;;;;;;;;4940289;29;20409;-87
2022/10/11 09:24:21;;;;;;;2.90;1.98;;;;;;;;;;4940479;29;20556;-87
2022/10/11 09:26:55;;;;;;;8.55;2.30;;;;;;;;;;4941921;29;20086;-87
2022/10/11 09:29:39;;;;;;;15.43;2.35;;;;;;;;;;4942399;29;20039;-88
2022/10/11 09:32:10;;;;;;;;;;;;;;;;;;4942683;29;20036;-87
2022/10/11 09:34:36;;;;;;;8.88;2.10;;;;;;;;;;4940329;29;19915;-88
2022/10/11 09:37:10;;;;;;;4.50;2.20;;;;;;;;;;4933013;29;20043;-89
2022/10/11 09:39:40;;;;;;;3.78;2.10;;;;;;;;;;4926270;29;20040;-88
2022/10/11 09:42:08;;;;;;;8.90;2.47;;;;;;;;;;4925480;29;20117;-88
2022/10/11 09:44:37;;;;;;;5.68;2.47;;;;;;;;;;4922303;29;20043;-88
2022/10/11 09:47:05;;;;;;;9.70;2.50;;;;;;;;;;4922260;29;20497;-87
2022/10/11 09:49:36;;;;;;;3.40;2.33;;;;;;;;;;4921626;29;20040;-87
2022/10/11 09:52:05;;;;;;;5.13;2.30;;;;;;;;;;4920112;29;20043;-87
2022/10/11 09:54:43;;;;;;;5.63;2.08;;;;;;;;;;4920015;29;20036;-88
2022/10/11 09:57:26;;;;;;;6.00;3.08;;;;;;;;;;4921957;29;20549;-87
2022/10/11 09:59:58;;;;;;;8.20;3.38;;;;;;;;;;4921899;29;20524;-87
2022/10/11 10:02:23;;;;;;;4.45;1.90;;;;;;;;;;4922505;29;20048;-87
2022/10/11 10:04:57;;;;;;;4.78;2.10;;;;;;;;;;4923724;29;20036;-87
2022/10/11 10:07:22;;;;;;;3.78;2.10;;;;;;;;;;4922966;29;20088;-89
2022/10/11 10:09:49;;;;;;;3.58;1.98;;;;;;;;;;4923843;29;20028;-88
2022/10/11 10:12:22;;;;;;;5.35;2.05;;;;;;;;;;4922638;29;20028;-88
2022/10/11 10:15:03;;;;;;;4.88;2.17;;;;;;;;;;4922635;29;20040;-88
2022/10/11 10:17:29;;;;;;;5.18;2.08;;;;;;;;;;4923215;29;20544;-87
2022/10/11 10:19:59;;;;;;;5.40;1.92;;;;;;;;;;4922013;29;20036;-86
2022/10/11 10:22:28;;;;;;;5.80;2.00;;;;;;;;;;4922004;29;20048;-88
2022/10/11 10:24:55;;;;;;;5.28;1.85;;;;;;;;;;4922488;29;20115;-88
2022/10/11 10:27:22;;;;;;;6.13;1.85;;;;;;;;;;4924612;29;20032;-88
2022/10/11 10:30:09;;;;;;;6.68;1.98;;;;;;;;;;4924082;29;20067;-88
2022/10/11 10:32:53;;;;;;;5.22;1.88;;;;;;;;;;4923024;29;20040;-88
2022/10/11 10:35:29;;;;;;;6.47;2.10;;;;;;;;;;4924242;29;20405;-88
2022/10/11 10:38:06;;;;;;;4.80;1.98;;;;;;;;;;4923348;29;20055;-88
2022/10/11 10:40:40;;;;;;;6.05;2.25;;;;;;;;;;4907535;29;20035;-89
2022/10/11 10:43:14;;;;;;;6.15;2.10;;;;;;;;;;4923265;29;20036;-89
2022/10/11 10:46:15;;;;;;;7.90;2.10;;;;;;;;;;4922732;29;20481;-88
2022/10/11 10:48:49;;;;;;;12.02;2.65;;;;;;;;;;4919338;29;20036;-87
2022/10/11 10:51:42;;;;;;;7.32;2.00;;;;;;;;;;4919742;29;20044;-89
2022/10/11 10:54:26;;;;;;;6.70;2.15;;;;;;;;;;4919325;29;20043;-88
2022/10/11 10:56:59;;;;;;;7.53;2.10;;;;;;;;;;4920244;29;20044;-88
2022/10/11 10:59:57;;;;;;;9.23;2.25;;;;;;;;;;4920230;29;20520;-88
2022/10/11 11:02:32;;;;;;;6.45;1.90;;;;;;;;;;4918901;29;20159;-89
2022/10/11 11:05:20;;;;;;;5.60;2.08;;;;;;;;;;4919622;29;20125;-88
2022/10/11 11:07:57;;;;;;;6.43;1.60;;;;;;;;;;4919952;29;20036;-88
2022/10/11 11:10:32;;;;;;;3.38;1.50;;;;;;;;;;4918418;29;20077;-88
2022/10/11 11:13:37;;;;;;;6.07;1.63;;;;;;;;;;4918467;29;20039;-88
2022/10/11 11:16:22;;;;;;;3.58;1.60;;;;;;;;;;4877758;29;20041;-88
2022/10/11 11:18:56;;;;;;;7.28;1.85;;;;;;;;;;4878303;29;20052;-87
2022/10/11 11:21:25;;;;;;;3.75;1.70;;;;;;;;;;4911862;29;20422;-88
2022/10/11 11:24:16;;;;;;;7.57;1.90;;;;;;;;;;4916132;29;20066;-88
2022/10/11 11:26:58;;;;;;;5.55;1.75;;;;;;;;;;4918106;29;20047;-87
2022/10/11 11:29:42;;;;;;;6.25;1.60;;;;;;;;;;4918125;29;20117;-87
2022/10/11 11:32:23;;;;;;;4.93;1.80;;;;;;;;;;4917773;29;20413;-87
2022/10/11 11:34:53;;;;;;;6.50;1.60;;;;;;;;;;4917732;29;20043;-88
2022/10/11 11:37:27;;;;;;;4.65;1.55;;;;;;;;;;4916397;29;20119;-88
2022/10/11 11:40:01;;;;;;;6.22;1.83;;;;;;;;;;4916298;29;20040;-88
2022/10/11 11:42:35;;;;;;;6.00;1.85;;;;;;;;;;4900520;29;20039;-88
2022/10/11 11:45:11;;;;;;;6.95;1.77;;;;;;;;;;4916167;29;20059;-88
2022/10/11 11:47:41;;;;;;;5.78;1.90;;;;;;;;;;4917275;29;20036;-88
2022/10/11 11:50:22;;;;;;;11.32;2.00;;;;;;;;;;4915704;29;20051;-88
2022/10/11 11:52:56;;;;;;;6.55;1.95;;;;;;;;;;4916347;29;20047;-89
2022/10/11 11:55:26;;;;;;;;;;;;;;;;;;4929130;29;20099;-88
2022/10/11 11:58:37;;;;;;;6.43;2.00;;;;;;;;;;4919667;29;20372;-89
2022/10/11 12:01:26;;;;;;;8.20;2.08;;;;;;;;;;4895068;29;20073;-90
2022/10/11 12:03:55;;;;;;;8.38;2.00;;;;;;;;;;4915479;29;20047;-90
2022/10/11 12:06:34;;;;;;;5.38;1.95;;;;;;;;;;4906812;29;20441;-90
2022/10/11 12:09:15;;;;;;;5.55;1.80;;;;;;;;;;4924745;29;20548;-85
2022/10/11 12:11:51;;;;;;;5.18;1.83;;;;;;;;;;4938969;29;20044;-85
2022/10/11 12:14:32;;;;;;;7.40;1.85;;;;;;;;;;4938478;29;20112;-86
2022/10/11 12:17:13;;;;;;;7.53;1.83;;;;;;;;;;4939673;29;20046;-86
2022/10/11 12:19:42;;;;;;;4.75;1.67;;;;;;;;;;4937693;29;20051;-86
2022/10/11 12:22:26;;;;;;;4.28;1.70;;;;;;;;;;4940937;29;20066;-88
2022/10/11 12:25:20;;;;;;;3.03;1.52;;;;;;;;;;4923388;29;20501;-89
2022/10/11 12:27:47;;;;;;;5.68;2.00;;;;;;;;;;4926706;29;20493;-90
2022/10/11 12:30:46;;;;;;;4.15;1.88;;;;;;;;;;4935983;29;20445;-89
2022/10/11 12:33:24;;;;;;;4.20;1.70;;;;;;;;;;4938135;29;20043;-89
2022/10/11 12:35:50;;;;;;;7.85;1.88;;;;;;;;;;4939063;29;20039;-90
2022/10/11 12:38:18;;;;;;;8.90;1.70;;;;;;;;;;4938650;29;20039;-90
2022/10/11 12:40:46;;;;;;;9.32;1.85;;;;;;;;;;4938550;29;20043;-90
2022/10/11 12:43:14;;;;;;;4.47;1.92;;;;;;;;;;4940016;29;20038;-90
2022/10/11 12:45:42;;;;;;;5.13;1.85;;;;;;;;;;4939411;29;20047;-90
2022/10/11 12:48:21;;;;;;;4.97;1.80;;;;;;;;;;4922684;29;20119;-90
2022/10/11 12:51:19;;;;;;;4.95;1.90;;;;;;;;;;4938532;29;20039;-90
2022/10/11 12:54:11;;;;;;;7.10;1.92;;;;;;;;;;4938206;29;20047;-90
2022/10/11 12:56:43;;;;;;;4.45;2.15;;;;;;;;;;4938243;29;20043;-90
2022/10/11 12:59:18;;;;;;;5.82;2.17;;;;;;;;;;4940390;29;20050;-91
2022/10/11 13:01:52;;;;;;;4.03;1.80;;;;;;;;;;4939092;29;20481;-90
2022/10/11 13:04:24;;;;;;;7.30;1.83;;;;;;;;;;4940184;29;20036;-91
2022/10/11 13:06:55;;;;;;;6.90;1.77;;;;;;;;;;4938153;29;20082;-91
2022/10/11 13:09:31;;;;;;;3.13;1.70;;;;;;;;;;4939959;29;20027;-92
2022/10/11 13:12:07;;;;;;;7.32;1.73;;;;;;;;;;4938058;29;20032;-91
2022/10/11 13:14:42;;;;;;;4.72;1.73;;;;;;;;;;4939547;29;20118;-91
2022/10/11 13:17:25;;;;;;;9.75;1.92;;;;;;;;;;4938159;29;20040;-92
2022/10/11 13:20:17;;;;;;;8.90;1.80;;;;;;;;;;4938472;29;20091;-91
2022/10/11 13:22:46;;;;;;;7.03;1.90;;;;;;;;;;4938496;29;20481;-91
2022/10/11 13:25:24;;;;;;;8.30;1.75;;;;;;;;;;4922214;29;20039;-92
2022/10/11 13:27:54;;;;;;;5.72;1.80;;;;;;;;;;4938488;29;20075;-91
2022/10/11 13:30:28;;;;;;;4.75;1.70;;;;;;;;;;4939402;29;20047;-92
2022/10/11 13:32:55;;;;;;;7.63;1.80;;;;;;;;;;4938117;29;20043;-91
2022/10/11 13:35:28;;;;;;;7.45;1.83;;;;;;;;;;4937652;29;20087;-91
2022/10/11 13:37:54;;;;;;;8.55;1.85;;;;;;;;;;4937907;29;20078;-91
2022/10/11 13:40:20;;;;;;;10.90;4.20;;;;;;;;;;4937710;29;20023;-91
2022/10/11 13:42:49;;;;;;;6.93;3.95;;;;;;;;;;4937694;29;20042;-91
2022/10/11 13:45:18;;;;;;;7.72;2.78;;;;;;;;;;4937950;29;20098;-90
2022/10/11 13:47:45;;;;;;;6.22;2.40;;;;;;;;;;4938362;29;20488;-91
2022/10/11 13:50:31;;;;;;;6.00;2.63;;;;;;;;;;4922003;29;20052;-91
2022/10/11 13:53:21;;;;;;;11.68;3.20;;;;;;;;;;4937303;29;20063;-92
2022/10/11 13:55:49;;;;;;;8.57;2.67;;;;;;;;;;4937454;29;20055;-92
2022/10/11 13:58:37;;;;;;;6.65;2.00;;;;;;;;;;4938522;29;20073;-91
2022/10/11 14:01:21;;;;;;;7.18;2.30;;;;;;;;;;4921606;29;20027;-91
2022/10/11 14:04:01;;;;;;;6.88;1.63;;;;;;;;;;4912687;29;20590;-91
2022/10/11 14:06:52;;;;;;;5.32;2.03;;;;;;;;;;4923109;29;20039;-91
2022/10/11 14:09:22;;;;;;;4.47;1.80;;;;;;;;;;4918685;29;20398;-90
2022/10/11 14:11:48;;;;;;;5.45;2.20;;;;;;;;;;4918570;29;20038;-91
2022/10/11 14:14:40;;;;;;;5.95;2.13;;;;;;;;;;4920175;29;20048;-92
2022/10/11 14:17:17;;;;;;;5.78;1.50;;;;;;;;;;4918809;29;20044;-92
2022/10/11 14:19:46;;;;;;;4.28;1.70;;;;;;;;;;4923999;29;20053;-91
2022/10/11 14:22:16;;;;;;;8.07;1.60;;;;;;;;;;4907118;29;20059;-92
2022/10/11 14:24:47;;;;;;;6.93;1.58;;;;;;;;;;4923722;29;20047;-92
2022/10/11 14:27:18;;;;;;;8.82;1.90;;;;;;;;;;4921769;29;20032;-92
2022/10/11 14:29:44;;;;;;;7.35;1.60;;;;;;;;;;4920831;29;20497;-92
2022/10/11 14:32:15;;;;;;;4.45;1.67;;;;;;;;;;4918125;29;20036;-91
2022/10/11 14:34:42;;;;;;;10.05;1.92;;;;;;;;;;4917812;29;20608;-91
2022/10/11 14:37:11;;;;;;;7.47;1.73;;;;;;;;;;4918065;29;20528;-91
2022/10/11 14:39:37;;;;;;;6.85;1.75;;;;;;;;;;4919636;29;20051;-91
2022/10/11 14:42:03;;;;;;;5.97;1.90;;;;;;;;;;4919511;29;20043;-91
2022/10/11 14:44:29;;;;;;;12.10;1.77;;;;;;;;;;4917595;29;20040;-90
2022/10/11 14:46:54;;;;;;;7.45;1.63;;;;;;;;;;4901867;29;20032;-91
2022/10/11 14:49:25;;;;;;;27.38;2.35;;;;;;;;;;4902871;29;20552;-90
2022/10/11 14:51:52;;;;;;;12.75;2.60;;;;;;;;;;4917543;29;20051;-91
2022/10/11 14:54:21;;;;;;;8.20;2.00;;;;;;;;;;4918268;29;20056;-91
2022/10/11 14:56:46;;;;;;;9.48;1.75;;;;;;;;;;4916310;29;20032;-90
2022/10/11 14:59:14;;;;;;;5.28;1.70;;;;;;;;;;4917502;29;20032;-91
2022/10/11 15:01:40;;;;;;;5.32;1.83;;;;;;;;;;4918362;29;20498;-91
2022/10/11 15:04:05;;;;;;;9.07;2.28;;;;;;;;;;4918445;29;20081;-90
2022/10/11 15:06:35;;;;;;;9.02;2.40;;;;;;;;;;4918539;29;20032;-90